Terminal Aerodrome Forecast
Issued by NWS

Home | Current Version | Previous Version | Text Only | Print | Product List | Glossary On
Versions: 1 2 3 4 5 6 7 8 9 10 11 12 13 14 15 16 17 18 19 20 21 22 23 24 25 26 27 28 29 30 31 32 33 34 35 36 37 38 39 40 41
000
FTUS45 KBOU 291121
TAFAPA
TAF
KAPA 291121Z 2912/3012 18006KT P6SM SCT080 SCT120
     FM291500 03007KT P6SM VCSH SCT050 BKN080
     FM291700 01012KT P6SM VCTS SCT030CB BKN050 OVC080
      TEMPO 2917/2920 -SHRA OVC030
     FM292000 01012KT P6SM -SHRA SCT030 BKN050 PROB30 2921/2924
      -TSRA BKN030CB
     FM300200 04008KT P6SM VCSH SCT025 BKN050
     FM300500 08007KT P6SM BKN025 BKN050
     FM300900 12006KT P6SM BKN025 BKN050=

USA.gov is the U.S. government's official web portal to all federal, state and local government web resources and services.